createdAt,value
2018-10-07T00:01:30.894Z,98955.96
2018-10-07T00:06:24.271Z,98947.52
2018-10-07T00:11:17.653Z,98939.39
2018-10-07T00:16:10.929Z,98928.27
2018-10-07T00:21:04.257Z,98929.13
2018-10-07T00:25:57.572Z,98928.37
2018-10-07T00:30:51.014Z,98920.11
2018-10-07T00:35:44.355Z,98919.66
2018-10-07T00:40:37.618Z,98912.98
2018-10-07T00:45:31.298Z,98899.61
2018-10-07T00:50:24.638Z,98904.56
2018-10-07T00:55:17.928Z,98899.20
2018-10-07T01:00:11.200Z,98899.20
2018-10-07T01:05:04.615Z,98898.84
2018-10-07T01:09:57.883Z,98893.51
2018-10-07T01:14:51.138Z,98889.14
2018-10-07T01:19:44.521Z,98885.95
2018-10-07T01:24:37.708Z,98883.52
2018-10-07T01:29:30.931Z,98877.59
2018-10-07T01:34:24.262Z,98874.48
2018-10-07T01:39:17.471Z,98876.20
2018-10-07T01:44:10.743Z,98864.13
2018-10-07T01:49:04.124Z,98858.94
2018-10-07T01:53:57.364Z,98858.42
2018-10-07T01:58:50.505Z,98850.66
2018-10-07T02:03:43.809Z,98844.62
2018-10-07T02:08:37.005Z,98838.80
2018-10-07T02:13:30.307Z,98838.38
2018-10-07T02:18:23.658Z,98841.55
2018-10-07T02:23:16.880Z,98841.03
2018-10-07T02:28:10.199Z,98837.23
2018-10-07T02:33:03.510Z,98832.86
2018-10-07T02:37:56.755Z,98831.07
2018-10-07T02:42:50.116Z,98825.09
2018-10-07T02:47:43.405Z,98823.86
2018-10-07T02:52:42.188Z,98826.17
2018-10-07T02:57:36.518Z,98823.81
2018-10-07T03:02:29.775Z,98821.16
2018-10-07T03:07:23.172Z,98811.73
2018-10-07T03:12:16.452Z,98816.12
2018-10-07T03:17:09.781Z,98819.12
2018-10-07T03:22:03.093Z,98809.19
2018-10-07T03:26:56.482Z,98803.98
2018-10-07T03:31:49.742Z,98803.78
2018-10-07T03:36:43.287Z,98808.95
2018-10-07T03:41:36.634Z,98803.02
2018-10-07T03:46:29.931Z,98803.27
2018-10-07T03:51:23.302Z,98805.19
2018-10-07T03:56:16.591Z,98798.95
2018-10-07T04:01:09.863Z,98800.93
2018-10-07T04:06:03.093Z,98789.48
2018-10-07T04:10:56.397Z,98792.78
2018-10-07T04:15:49.800Z,98791.83
2018-10-07T04:20:43.035Z,98791.59
2018-10-07T04:25:36.445Z,98787.09
2018-10-07T04:30:29.742Z,98791.02
2018-10-07T04:35:22.991Z,98788.91
2018-10-07T04:40:16.253Z,98781.37
2018-10-07T04:45:09.581Z,98789.98
2018-10-07T04:50:02.973Z,98786.16
2018-10-07T04:54:56.896Z,98791.19
2018-10-07T04:59:50.578Z,98786.02
2018-10-07T05:04:44.003Z,98779.27
2018-10-07T05:09:37.784Z,98773.19
2018-10-07T05:14:31.163Z,98779.91
2018-10-07T05:19:24.503Z,98790.35
2018-10-07T05:24:18.543Z,98788.27
2018-10-07T05:29:11.901Z,98784.07
2018-10-07T05:34:06.800Z,98783.31
2018-10-07T05:39:00.845Z,98792.03
2018-10-07T05:43:54.096Z,98794.13
2018-10-07T05:48:47.425Z,98794.88
2018-10-07T05:53:41.106Z,98786.42
2018-10-07T05:58:34.934Z,98790.38
2018-10-07T06:03:38.576Z,98788.89
2018-10-07T06:08:32.068Z,98791.52
2018-10-07T06:13:26.306Z,98790.36
2018-10-07T06:18:19.623Z,98783.81
2018-10-07T06:23:12.858Z,98788.89
2018-10-07T06:28:06.301Z,98796.63
2018-10-07T06:32:59.720Z,98794.52
2018-10-07T06:37:53.840Z,98797.94
2018-10-07T06:42:49.650Z,98801.50
2018-10-07T06:47:43.015Z,98800.78
2018-10-07T06:52:36.576Z,98795.11
2018-10-07T06:57:30.284Z,98806.30
2018-10-07T07:02:23.806Z,98795.39
2018-10-07T07:07:17.161Z,98794.56
2018-10-07T07:12:11.177Z,98789.11
2018-10-07T07:17:04.608Z,98786.55
2018-10-07T07:21:57.951Z,98786.31
2018-10-07T07:26:51.275Z,98788.55
2018-10-07T07:31:44.572Z,98786.88
2018-10-07T07:36:37.730Z,98785.66
2018-10-07T07:41:31.019Z,98785.38
2018-10-07T07:46:24.627Z,98790.78
2018-10-07T07:51:18.034Z,98778.53
2018-10-07T07:56:11.437Z,98774.98
2018-10-07T08:01:05.261Z,98780.34
2018-10-07T08:05:58.601Z,98779.05
2018-10-07T08:10:51.926Z,98767.29
2018-10-07T08:15:45.249Z,98772.15
2018-10-07T08:20:38.553Z,98767.06
2018-10-07T08:25:31.960Z,98762.58
2018-10-07T08:30:25.358Z,98752.41
2018-10-07T08:35:18.687Z,98749.20
2018-10-07T08:40:12.192Z,98745.10
2018-10-07T08:45:05.784Z,98743.95
2018-10-07T08:49:59.239Z,98737.02
2018-10-07T08:54:53.045Z,98741.39
2018-10-07T08:59:46.270Z,98740.38
2018-10-07T09:04:39.838Z,98745.27
2018-10-07T09:09:33.230Z,98739.81
2018-10-07T09:14:28.130Z,98744.14
2018-10-07T09:19:21.451Z,98741.70
2018-10-07T09:24:14.768Z,98729.01
2018-10-07T09:29:08.246Z,98734.14
2018-10-07T09:34:01.490Z,98722.64
2018-10-07T09:38:54.776Z,98718.67
2018-10-07T09:43:48.042Z,98714.95
2018-10-07T09:48:41.526Z,98707.53
2018-10-07T09:53:35.177Z,98689.63
2018-10-07T09:58:28.496Z,98681.69
2018-10-07T10:03:21.749Z,98672.98
2018-10-07T10:08:14.910Z,98664.26
2018-10-07T10:13:08.230Z,98654.64
2018-10-07T10:18:04.334Z,98652.19
2018-10-07T10:23:01.348Z,98649.91
2018-10-07T10:28:28.475Z,98643.22
2018-10-07T10:33:28.522Z,98632.42
2018-10-07T10:38:29.239Z,98623.23
2018-10-07T10:43:26.571Z,98622.80
2018-10-07T10:48:27.788Z,98617.31
2018-10-07T10:53:28.580Z,98616.13
2018-10-07T10:59:29.226Z,98610.66
2018-10-07T11:04:25.018Z,98603.61
2018-10-07T11:09:29.616Z,98595.41
2018-10-07T11:14:35.297Z,98590.73
2018-10-07T11:19:39.888Z,98589.11
2018-10-07T11:24:49.523Z,98581.34
2018-10-07T11:29:54.532Z,98568.73
2018-10-07T11:34:53.504Z,98569.21
2018-10-07T11:40:58.924Z,98563.52
2018-10-07T11:46:29.121Z,98560.84
2018-10-07T11:53:36.478Z,98553.36
2018-10-07T11:58:29.686Z,98551.13
2018-10-07T12:03:22.795Z,98540.13
2018-10-07T12:08:16.330Z,98539.30
2018-10-07T12:13:09.571Z,98534.05
2018-10-07T12:18:02.822Z,98519.23
2018-10-07T12:23:02.826Z,98514.61
2018-10-07T12:27:56.185Z,98509.62
2018-10-07T12:32:49.350Z,98504.86
2018-10-07T12:37:43.213Z,98505.84
2018-10-07T12:42:36.510Z,98497.69
2018-10-07T12:47:29.946Z,98498.39
2018-10-07T12:52:23.278Z,98498.38
2018-10-07T12:57:16.659Z,98498.92
2018-10-07T13:02:10.996Z,98489.20
2018-10-07T13:07:04.361Z,98484.77
2018-10-07T13:11:57.703Z,98479.13
2018-10-07T13:16:51.030Z,98479.00
2018-10-07T13:21:44.530Z,98483.66
2018-10-07T13:26:37.831Z,98480.75
2018-10-07T13:31:32.126Z,98481.05
2018-10-07T13:36:25.542Z,98471.52
2018-10-07T13:41:18.985Z,98468.47
2018-10-07T13:46:13.097Z,98469.75
2018-10-07T13:51:06.342Z,98472.20
2018-10-07T13:55:59.981Z,98473.12
2018-10-07T14:00:53.235Z,98471.75
2018-10-07T14:05:47.102Z,98467.72
2018-10-07T14:10:40.834Z,98473.62
2018-10-07T14:15:34.477Z,98466.70
2018-10-07T14:20:27.724Z,98471.27
2018-10-07T14:25:21.273Z,98472.19
2018-10-07T14:30:14.611Z,98470.86
2018-10-07T14:35:08.460Z,98469.91
2018-10-07T14:40:02.390Z,98467.73
2018-10-07T14:44:55.999Z,98463.42
2018-10-07T14:49:49.391Z,98467.69
2018-10-07T14:54:42.658Z,98465.62
2018-10-07T14:59:35.948Z,98465.65
2018-10-07T15:04:31.127Z,98462.78
2018-10-07T15:09:25.359Z,98467.47
2018-10-07T15:14:18.748Z,98470.20
2018-10-07T15:19:13.014Z,98470.06
2018-10-07T15:24:06.461Z,98472.37
2018-10-07T15:29:00.244Z,98469.49
2018-10-07T15:33:53.623Z,98473.27
2018-10-07T15:38:46.958Z,98479.90
2018-10-07T15:43:40.831Z,98494.25
2018-10-07T15:48:35.769Z,98487.56
2018-10-07T15:53:28.995Z,98492.17
2018-10-07T15:58:22.162Z,98493.86
2018-10-07T16:03:15.485Z,98500.22
2018-10-07T16:08:08.838Z,98504.93
2018-10-07T16:13:02.252Z,98509.80
2018-10-07T16:17:56.372Z,98515.16
2018-10-07T16:22:50.104Z,98524.59
2018-10-07T16:27:43.370Z,98545.78
2018-10-07T16:32:37.187Z,98546.88
2018-10-07T16:37:30.602Z,98549.02
2018-10-07T16:42:24.295Z,98557.62
2018-10-07T16:47:17.580Z,98563.55
2018-10-07T16:52:12.277Z,98563.61
2018-10-07T16:57:06.277Z,98566.73
2018-10-07T17:02:00.207Z,98564.73
2018-10-07T17:06:53.483Z,98568.80
2018-10-07T17:11:46.868Z,98581.55
2018-10-07T17:16:40.212Z,98583.98
2018-10-07T17:21:33.607Z,98584.97
2018-10-07T17:26:26.947Z,98587.82
2018-10-07T17:31:20.250Z,98590.80
2018-10-07T17:36:13.564Z,98590.51
2018-10-07T17:41:06.808Z,98595.55
2018-10-07T17:46:00.644Z,98604.11
2018-10-07T17:50:54.559Z,98604.30
2018-10-07T17:55:47.899Z,98606.03
2018-10-07T18:00:41.906Z,98603.59
2018-10-07T18:05:35.515Z,98605.75
2018-10-07T18:10:28.915Z,98614.13
2018-10-07T18:15:22.217Z,98615.25
2018-10-07T18:20:15.467Z,98619.66
2018-10-07T18:25:08.725Z,98622.83
2018-10-07T18:30:02.019Z,98624.36
2018-10-07T18:34:55.760Z,98622.59
2018-10-07T18:39:49.420Z,98634.03
2018-10-07T18:44:42.860Z,98623.02
2018-10-07T18:49:36.753Z,98632.25
2018-10-07T18:54:30.896Z,98627.81
2018-10-07T18:59:25.547Z,98635.52
2018-10-07T19:04:19.047Z,98628.01
2018-10-07T19:09:12.302Z,98626.84
2018-10-07T19:14:05.601Z,98634.88
2018-10-07T19:18:59.348Z,98634.31
2018-10-07T19:23:53.207Z,98636.59
2018-10-07T19:28:46.966Z,98641.36
2018-10-07T19:33:40.095Z,98641.41
2018-10-07T19:38:33.444Z,98636.70
2018-10-07T19:43:27.552Z,98634.31
2018-10-07T19:48:21.000Z,98632.15
2018-10-07T19:53:14.314Z,98636.16
2018-10-07T19:58:07.525Z,98635.44
2018-10-07T20:03:00.762Z,98630.36
2018-10-07T20:07:54.032Z,98621.45
2018-10-07T20:12:47.299Z,98621.66
2018-10-07T20:17:41.652Z,98616.45
2018-10-07T20:22:35.473Z,98626.97
2018-10-07T20:27:28.665Z,98624.00
2018-10-07T20:32:21.887Z,98627.23
2018-10-07T20:37:15.194Z,98629.87
2018-10-07T20:42:08.450Z,98627.22
2018-10-07T20:47:02.246Z,98621.07
2018-10-07T20:51:55.608Z,98616.94
2018-10-07T20:56:49.351Z,98626.89
2018-10-07T21:01:43.005Z,98619.28
2018-10-07T21:06:36.694Z,98615.22
2018-10-07T21:11:29.886Z,98618.18
2018-10-07T21:16:23.064Z,98613.73
2018-10-07T21:21:17.404Z,98612.33
2018-10-07T21:26:11.236Z,98612.83
2018-10-07T21:31:06.327Z,98605.17
2018-10-07T21:35:59.654Z,98608.19
2018-10-07T21:40:53.921Z,98612.56
2018-10-07T21:45:47.139Z,98615.24
2018-10-07T21:50:41.592Z,98615.86
2018-10-07T21:55:35.107Z,98609.65
2018-10-07T22:00:28.559Z,98609.75
2018-10-07T22:05:24.225Z,98612.28
2018-10-07T22:10:17.550Z,98618.06
2018-10-07T22:15:10.847Z,98609.70
2018-10-07T22:20:04.446Z,98607.68
2018-10-07T22:24:59.638Z,98608.99
2018-10-07T22:29:53.408Z,98609.32
2018-10-07T22:34:46.576Z,98613.73
2018-10-07T22:39:40.074Z,98618.62
2018-10-07T22:44:34.161Z,98613.77
2018-10-07T22:49:27.644Z,98616.80
2018-10-07T22:54:20.892Z,98612.67
2018-10-07T22:59:13.981Z,98605.59
2018-10-07T23:04:07.312Z,98614.16
2018-10-07T23:09:01.561Z,98610.88
2018-10-07T23:13:54.745Z,98609.73
2018-10-07T23:18:49.775Z,98606.68
2018-10-07T23:23:43.035Z,98598.03
2018-10-07T23:28:36.207Z,98594.67
2018-10-07T23:33:29.455Z,98594.67
2018-10-07T23:38:22.653Z,98583.95
2018-10-07T23:43:15.866Z,98582.01
2018-10-07T23:48:09.138Z,98575.78
2018-10-07T23:53:02.393Z,98581.19
2018-10-07T23:57:56.075Z,98577.27
